Ευχαριστούμε που συμβάλλετε στη διατήρηση της σελίδας μας.

Thank you for your donations, it really helps to maintain the page.

Meteo Stats And More

Στατιστικά Καιρού & Άλλα..






Δείκτης Πυρκαγιάς (FWI)

Καστελόκαμπος Ρίον more information Kastelokampos Rion


Κάμερα Ρομανού more information Romanos Cam


προειδοποίηση για Καταιγίδες more information blitzortung!


Ραντάρ Βροχής more information rain snow radar


Επισκεφθείτε άλλες ιστοσελίδες καιρού μας:

Meteopatras.Eu in
Euweather NetworkMeteopatras.Eu in Euweather Network

Weather CloudWeather Cloud

PWS WeatherPWS Weather

Awekas NetWeather data from station Patra-Ketx

WunderGroundWeather data from station Patra-Ketx



Καταιγίδες Από : 14-12-2018 02:00 Μέχρι : 11:00 προειδοποίηση για : Καταιγίδες Επίπεδο : Κίτρινο info button

Ιδιοκτησία και Επίβλεψη : Μουλάς Αντρέας

 Πάτρα, Ελλάδα - Γ.Πλάτος : 38°14'21" Β - Γ.Μήκος : 21°45'5" Α - Υψόμετρο : 56μ

Κοντινές Αναφορές METAR

   
LGRX - Araxos
Ενημερώθηκε: 14-12-2018 06:50
Κυρίως Συννεφιά  
Κυρίως Συννεφιά  
   Άνεμος: ΑΒΑ 18.5 km/h
Άνεμος: ΑΒΑ 18.5 km/h
Θερμοκρασία: 13°C
Σημείο Δρόσου: 11°C
Υγρασία: 88%
Βαρόμετρο: 1015 hPa
Σύννεφα: Κυρίως Συννεφιά
Ορατότητα: More than 10 km
Λεπτομέρειες Σύννεφου: Μερικώς Νεφελώδης 2500 ft,
Κυρίως Συννεφιά 8000 ft
LGRX 140450Z 07010KT 9999 SCT025 BKN080 13/11 Q1015
LGAD - Andravida
Ενημερώθηκε: 14-12-2018 06:50
Κυρίως Συννεφιά  
Κυρίως Συννεφιά  
   Άνεμος: Άπνοια
Άνεμος: Άπνοια
Θερμοκρασία: 10°C
Σημείο Δρόσου: 10°C
Υγρασία: 100%
Βαρόμετρο: 1015 hPa
Σύννεφα: Κυρίως Συννεφιά
Ορατότητα: More than 10 km
Λεπτομέρειες Σύννεφου: Κυρίως Αίθριος 1800 ft,
Μερικώς Νεφελώδης 2500 ft,
Κυρίως Συννεφιά 8000 ft
LGAD 140450Z 00000KT 9999 FEW018 SCT025 BKN080 10/10 Q1015
LGZA - Zakinthos
Ενημερώθηκε: 13-12-2018 19:50
ΜΗ τρέχουσες
Κυρίως Συννεφιά  
Κυρίως Συννεφιά  
   Άνεμος: Άπνοια
Άνεμος: Άπνοια
Θερμοκρασία: 11°C
Σημείο Δρόσου: 11°C
Υγρασία: 100%
Βαρόμετρο: 1015 hPa
Σύννεφα: Κυρίως Συννεφιά
Ορατότητα: More than 10 km
Λεπτομέρειες Σύννεφου: Μερικώς Νεφελώδης 1000 ft,
Κυρίως Συννεφιά 2000 ft
LGZA 131750Z 00000KT 9999 SCT010 BKN020 11/11 Q1015
LGKF - Kefallinia
Ενημερώθηκε: 13-12-2018 19:50
ΜΗ τρέχουσες
Κυρίως Συννεφιά  
Κυρίως Συννεφιά  
   Άνεμος: Ανατολή 13 km/h
Άνεμος: Ανατολή 13 km/h
Θερμοκρασία: 13°C
Σημείο Δρόσου: 11°C
Υγρασία: 88%
Βαρόμετρο: 1014 hPa
Σύννεφα: Κυρίως Συννεφιά
Ορατότητα: More than 10 km
Λεπτομέρειες Σύννεφου: Κυρίως Αίθριος 1500 ft,
Μερικώς Νεφελώδης 2000 ft,
Κυρίως Συννεφιά 7000 ft
LGKF 131750Z 10007KT 9999 FEW015 SCT020 BKN070 13/11 Q1014
LGPZ - Preveza
Ενημερώθηκε: 14-12-2018 06:50
Μερικώς Νεφελώδης  
Μερικώς Νεφελώδης  
   Άνεμος: ΒΑ 14.8 km/h
Άνεμος: ΒΑ 14.8 km/h
Θερμοκρασία: 10°C
Δείκτης Ψυχρότητας: 8°C
Σημείο Δρόσου: 9°C
Υγρασία: 94%
Βαρόμετρο: 1016 hPa
Σύννεφα: Μερικώς Νεφελώδης
Ορατότητα: More than 10 km
Λεπτομέρειες Σύννεφου: Μερικώς Νεφελώδης 2500 ft
LGPZ 140450Z 05008KT 9999 SCT025 10/09 Q1016
LGKL - Kalamata
Ενημερώθηκε: 14-12-2018 06:50
Μερικώς Νεφελώδης  
Μερικώς Νεφελώδης  
   Άνεμος: Άπνοια
Άνεμος: Άπνοια
Θερμοκρασία: 9°C
Σημείο Δρόσου: 8°C
Υγρασία: 94%
Βαρόμετρο: 1017 hPa
Σύννεφα: Μερικώς Νεφελώδης
Ορατότητα: 6 km
Λεπτομέρειες Σύννεφου: Μερικώς Νεφελώδης 2500 ft,
Μερικώς Νεφελώδης 8000 ft
LGKL 140450Z 00000KT 6000 SCT025 SCT080 09/08 Q1017
LGKR - Kerkyra
Ενημερώθηκε: 14-12-2018 06:50
Κυρίως Συννεφιά  
Κυρίως Συννεφιά  
   Άνεμος: ΝΑ 24.1 km/h
Άνεμος: ΝΑ 24.1 km/h
Θερμοκρασία: 15°C
Σημείο Δρόσου: 11°C
Υγρασία: 77%
Βαρόμετρο: 1013 hPa
Σύννεφα: Κυρίως Συννεφιά
Ορατότητα: More than 10 km
Λεπτομέρειες Σύννεφου: Κυρίως Αίθριος 1800 ft,
Κυρίως Συννεφιά 2500 ft
LGKR 140450Z 13013KT 9999 FEW018 BKN025 15/11 Q1013 NOSIG
LGIO - Iwannina
Ενημερώθηκε: 13-12-2018 21:20
ΜΗ τρέχουσες
Ελαφριά Βροχή, Ομίχλη, Συννεφιά  
Ελαφριά Βροχή, Ομίχλη, Συννεφιά  
   Άνεμος: ποικίλλει Άπνοια
Άνεμος: ποικίλλει Άπνοια
Θερμοκρασία: 3°C
Σημείο Δρόσου: 3°C
Υγρασία: 100%
Βαρόμετρο: 1014 hPa
Σύννεφα: Συννεφιά
Ορατότητα: 3 km
Λεπτομέρειες Σύννεφου: Μερικώς Νεφελώδης 400 ft,
Κυρίως Συννεφιά 2200 ft,
Συννεφιά 6000 ft
LGIO 131920Z /////KT 3000 -RA BR SCT004 BKN022 OVC060 03/03 Q1014
LGPZ - Leykada
Ενημερώθηκε: 14-12-2018 06:50
Μερικώς Νεφελώδης  
Μερικώς Νεφελώδης  
   Άνεμος: ΒΑ 14.8 km/h
Άνεμος: ΒΑ 14.8 km/h
Θερμοκρασία: 10°C
Δείκτης Ψυχρότητας: 8°C
Σημείο Δρόσου: 9°C
Υγρασία: 94%
Βαρόμετρο: 1016 hPa
Σύννεφα: Μερικώς Νεφελώδης
Ορατότητα: More than 10 km
Λεπτομέρειες Σύννεφου: Μερικώς Νεφελώδης 2500 ft
LGPZ 140450Z 05008KT 9999 SCT025 10/09 Q1016
LGEL - Elefsina
Ενημερώθηκε: 14-12-2018 06:50
Κυρίως Συννεφιά  
Κυρίως Συννεφιά  
   Άνεμος: ποικίλλει 5.6 km/h
Άνεμος: ποικίλλει 5.6 km/h
Θερμοκρασία: 10°C
Δείκτης Ψυχρότητας: 9°C
Σημείο Δρόσου: 8°C
Υγρασία: 88%
Βαρόμετρο: 1017 hPa
Σύννεφα: Κυρίως Συννεφιά
Ορατότητα: More than 10 km
Λεπτομέρειες Σύννεφου: Κυρίως Αίθριος 1500 ft,
Κυρίως Συννεφιά 2500 ft,
Κυρίως Συννεφιά 7000 ft
LGEL 140450Z VRB03KT 9999 FEW015 BKN025 BKN070 10/08 Q1017
LGKC - Kythira
Ενημερώθηκε: 13-12-2018 18:50
ΜΗ τρέχουσες
Ελαφριά Βροχή, Κυρίως Συννεφιά  
Ελαφριά Βροχή, Κυρίως Συννεφιά  
   Άνεμος: ΝΝΑ 9.3 km/h
Άνεμος: ΝΝΑ 9.3 km/h
Θερμοκρασία: 11°C
Σημείο Δρόσου: 10°C
Υγρασία: 94%
Βαρόμετρο: 1017 hPa
Σύννεφα: Κυρίως Συννεφιά
Ορατότητα: 7 km
Λεπτομέρειες Σύννεφου: Κυρίως Συννεφιά 700 ft,
Κυρίως Συννεφιά 1200 ft
LGKC 131650Z 15005KT 7000 -RA BKN007 BKN012 11/10 Q1017
LGIR - Hraklio
Ενημερώθηκε: 14-12-2018 06:50
Κυρίως Αίθριος  
Κυρίως Αίθριος  
   Άνεμος: ΝΝΑ 29.6 km/h
Άνεμος: ΝΝΑ 29.6 km/h
Θερμοκρασία: 15°C
Σημείο Δρόσου: 11°C
Υγρασία: 77%
Βαρόμετρο: 1017 hPa
Σύννεφα: Κυρίως Αίθριος
Ορατότητα: More than 10 km
Λεπτομέρειες Σύννεφου: Κυρίως Αίθριος 2000 ft
LGIR 140450Z 16016KT 9999 FEW020 15/11 Q1017 NOSIG

Script developed by  Saratoga-weather.org Προσαρμοσμένος για το πρότυπο του  Weerstation Leuven

Μπορείτε να βρείτε πληροφορίες καιρού μας και σε:

European Weather Network

WeatherCloud

Weather Underground

Δύκτιο Σταθμών Ελλάδας

AWEKAS

HAMweather, WeatherForYou, PWS Weather

MeteoPatras.Eu